EAG5518 SBSI-SBCN
Flight info
| Callsign | EAG5518 |
|---|---|
| Flight time | N/A |
| Altitude | 37000 |
| Route | OBGAT UZ87 OPMUS UZ40 DOSRO UM417 ESDEV UP793 MOPIM UZ8 DAKEM DCT ILPAV |
| Aircraft | A320/M-SDE3FGHIRWY/LB1 |
Departure
| Time | 2026-05-01 14:11 |
|---|---|
| Airport | Presidente João Batista Figueiredo Airport (SBSI) |
Arrival
| Time | N/A |
|---|---|
| Airport | Nelson Ribeiro Guimarães Airport (SBCN) |
| Time | Latitude | Longitude | Altitude | Speed | Heading |
|---|---|---|---|---|---|
| 2026-05-01 13:55 | -11.87832 | -55.58257 | 1227 ft | 0 kts | 104° |
| 2026-05-01 14:03 | -11.87830 | -55.58266 | 1227 ft | 4 kts | 115° |
| 2026-05-01 14:03 | -11.87815 | -55.58280 | 1227 ft | 4 kts | 188° |
| 2026-05-01 14:03 | -11.87808 | -55.58278 | 1227 ft | 0 kts | 196° |
| 2026-05-01 14:06 | -11.87816 | -55.58281 | 1227 ft | 5 kts | 196° |
| 2026-05-01 14:06 | -11.87852 | -55.58306 | 1227 ft | 7 kts | 254° |
| 2026-05-01 14:07 | -11.87843 | -55.58361 | 1227 ft | 8 kts | 285° |
| 2026-05-01 14:07 | -11.87830 | -55.58418 | 1225 ft | 9 kts | 276° |
| 2026-05-01 14:07 | -11.87863 | -55.58461 | 1225 ft | 8 kts | 205° |
| 2026-05-01 14:08 | -11.88037 | -55.58509 | 1227 ft | 13 kts | 194° |
| 2026-05-01 14:08 | -11.88125 | -55.58533 | 1228 ft | 13 kts | 195° |
| 2026-05-01 14:08 | -11.88207 | -55.58556 | 1230 ft | 11 kts | 195° |
| 2026-05-01 14:08 | -11.88309 | -55.58583 | 1231 ft | 17 kts | 194° |
| 2026-05-01 14:09 | -11.88433 | -55.58616 | 1232 ft | 19 kts | 194° |
| 2026-05-01 14:09 | -11.88571 | -55.58653 | 1231 ft | 22 kts | 195° |
| 2026-05-01 14:09 | -11.88720 | -55.58693 | 1233 ft | 23 kts | 194° |
| 2026-05-01 14:09 | -11.88846 | -55.58727 | 1233 ft | 18 kts | 194° |
| 2026-05-01 14:10 | -11.88976 | -55.58761 | 1232 ft | 20 kts | 194° |
| 2026-05-01 14:10 | -11.89111 | -55.58796 | 1232 ft | 17 kts | 194° |
| 2026-05-01 14:10 | -11.89187 | -55.58797 | 1232 ft | 6 kts | 227° |
| 2026-05-01 14:10 | -11.89177 | -55.58808 | 1232 ft | 1 kts | 340° |
| 2026-05-01 14:11 | -11.89082 | -55.58789 | 1232 ft | 42 kts | 14° |
| 2026-05-01 14:11 | -11.87391 | -55.58339 | 1622 ft | 171 kts | 14° |
| 2026-05-01 14:11 | -11.86263 | -55.57940 | 2569 ft | 173 kts | 33° |
| 2026-05-01 14:12 | -11.85624 | -55.56953 | 3429 ft | 174 kts | 81° |
| 2026-05-01 14:12 | -11.85611 | -55.55679 | 3906 ft | 189 kts | 93° |
| 2026-05-01 14:12 | -11.85697 | -55.54262 | 4188 ft | 212 kts | 94° |
| 2026-05-01 14:12 | -11.85788 | -55.52674 | 4512 ft | 236 kts | 93° |
| 2026-05-01 14:13 | -11.85861 | -55.50912 | 4972 ft | 261 kts | 92° |
| 2026-05-01 14:13 | -11.85907 | -55.49014 | 5765 ft | 272 kts | 91° |
| 2026-05-01 14:13 | -11.85922 | -55.47061 | 6728 ft | 277 kts | 89° |
| 2026-05-01 14:13 | -11.85633 | -55.45108 | 7668 ft | 282 kts | 73° |
| 2026-05-01 14:14 | -11.84873 | -55.43248 | 8630 ft | 285 kts | 65° |
| 2026-05-01 14:14 | -11.84105 | -55.41570 | 9488 ft | 289 kts | 65° |
| 2026-05-01 14:14 | -11.83250 | -55.39698 | 10325 ft | 297 kts | 65° |
| 2026-05-01 14:14 | -11.82343 | -55.37704 | 10692 ft | 321 kts | 65° |
| 2026-05-01 14:15 | -11.81374 | -55.35557 | 10981 ft | 346 kts | 65° |
| 2026-05-01 14:15 | -11.80352 | -55.33294 | 11396 ft | 362 kts | 65° |
| 2026-05-01 14:15 | -11.79287 | -55.30937 | 12110 ft | 369 kts | 65° |
| 2026-05-01 14:15 | -11.78205 | -55.28539 | 12893 ft | 373 kts | 66° |
| 2026-05-01 14:16 | -11.77481 | -55.25982 | 13601 ft | 378 kts | 83° |
| 2026-05-01 14:16 | -11.77610 | -55.23294 | 14308 ft | 383 kts | 103° |
| 2026-05-01 14:16 | -11.78609 | -55.20776 | 15008 ft | 386 kts | 122° |
| 2026-05-01 14:16 | -11.80371 | -55.18718 | 15679 ft | 389 kts | 142° |
| 2026-05-01 14:17 | -11.82678 | -55.17253 | 16329 ft | 392 kts | 151° |
| 2026-05-01 14:17 | -11.85077 | -55.15896 | 16962 ft | 396 kts | 151° |
| 2026-05-01 14:17 | -11.87502 | -55.14524 | 17595 ft | 399 kts | 151° |
| 2026-05-01 14:17 | -11.89912 | -55.13158 | 18181 ft | 403 kts | 151° |
| 2026-05-01 14:18 | -11.92376 | -55.11759 | 18767 ft | 406 kts | 151° |
| 2026-05-01 14:18 | -11.94854 | -55.10347 | 19328 ft | 410 kts | 151° |
| 2026-05-01 14:18 | -11.97351 | -55.08922 | 19892 ft | 413 kts | 151° |
| 2026-05-01 14:18 | -11.99055 | -55.07949 | 20253 ft | 415 kts | 151° |
| 2026-05-01 14:19 | -12.02409 | -55.06031 | 20950 ft | 420 kts | 151° |
| 2026-05-01 14:19 | -12.04968 | -55.04570 | 21457 ft | 423 kts | 151° |
| 2026-05-01 14:19 | -12.07546 | -55.03102 | 21951 ft | 426 kts | 151° |
| 2026-05-01 14:19 | -12.10141 | -55.01622 | 22435 ft | 429 kts | 151° |
| 2026-05-01 14:20 | -12.12763 | -55.00125 | 22893 ft | 432 kts | 151° |
| 2026-05-01 14:20 | -12.18053 | -54.97108 | 23779 ft | 438 kts | 151° |
| 2026-05-01 14:20 | -12.20721 | -54.95586 | 24205 ft | 441 kts | 151° |
| 2026-05-01 14:21 | -12.23412 | -54.94051 | 24619 ft | 444 kts | 151° |
| 2026-05-01 14:21 | -12.26088 | -54.92522 | 25024 ft | 446 kts | 151° |
| 2026-05-01 14:21 | -12.28809 | -54.90968 | 25427 ft | 449 kts | 151° |
| 2026-05-01 14:22 | -12.34296 | -54.87837 | 26189 ft | 454 kts | 151° |
| 2026-05-01 14:22 | -12.37070 | -54.86250 | 26546 ft | 457 kts | 151° |
| 2026-05-01 14:22 | -12.39843 | -54.84656 | 26893 ft | 459 kts | 149° |
| 2026-05-01 14:22 | -12.42468 | -54.82790 | 27231 ft | 461 kts | 140° |
| 2026-05-01 14:23 | -12.44776 | -54.80494 | 27541 ft | 464 kts | 131° |
| 2026-05-01 14:23 | -12.46698 | -54.77839 | 27859 ft | 466 kts | 121° |
| 2026-05-01 14:23 | -12.48187 | -54.74876 | 28172 ft | 469 kts | 112° |
| 2026-05-01 14:23 | -12.49386 | -54.71766 | 28471 ft | 471 kts | 111° |
| 2026-05-01 14:24 | -12.50591 | -54.68643 | 28763 ft | 473 kts | 111° |
| 2026-05-01 14:24 | -12.51790 | -54.65554 | 29122 ft | 473 kts | 111° |
| 2026-05-01 14:24 | -12.53005 | -54.62427 | 29538 ft | 472 kts | 111° |
| 2026-05-01 14:24 | -12.54208 | -54.59308 | 29956 ft | 471 kts | 111° |
| 2026-05-01 14:25 | -12.55407 | -54.56188 | 30354 ft | 470 kts | 111° |
| 2026-05-01 14:25 | -12.56600 | -54.53080 | 30754 ft | 469 kts | 111° |
| 2026-05-01 14:25 | -12.57795 | -54.49970 | 31143 ft | 468 kts | 111° |
| 2026-05-01 14:25 | -12.58987 | -54.46874 | 31527 ft | 468 kts | 111° |
| 2026-05-01 14:26 | -12.60178 | -54.43783 | 31898 ft | 467 kts | 111° |
| 2026-05-01 14:26 | -12.62562 | -54.37604 | 32648 ft | 465 kts | 114° |
| 2026-05-01 14:26 | -12.64069 | -54.34679 | 33005 ft | 464 kts | 123° |
| 2026-05-01 14:27 | -12.66017 | -54.32048 | 33355 ft | 463 kts | 132° |
| 2026-05-01 14:27 | -12.68353 | -54.29779 | 33701 ft | 463 kts | 142° |
| 2026-05-01 14:27 | -12.71012 | -54.27942 | 34042 ft | 462 kts | 151° |
| 2026-05-01 14:28 | -12.76622 | -54.24750 | 34736 ft | 460 kts | 151° |
| 2026-05-01 14:28 | -12.79382 | -54.23170 | 35070 ft | 460 kts | 151° |
| 2026-05-01 14:28 | -12.82204 | -54.21550 | 35415 ft | 459 kts | 151° |
| 2026-05-01 14:28 | -12.84946 | -54.19969 | 35728 ft | 458 kts | 151° |
| 2026-05-01 14:29 | -12.87723 | -54.18368 | 36031 ft | 458 kts | 151° |
| 2026-05-01 14:29 | -12.90496 | -54.16771 | 36331 ft | 457 kts | 151° |
| 2026-05-01 14:30 | -12.98819 | -54.11989 | 36983 ft | 458 kts | 151° |
| 2026-05-01 14:30 | -13.01600 | -54.10392 | 37011 ft | 458 kts | 151° |
| 2026-05-01 14:31 | -13.09927 | -54.05594 | 37009 ft | 457 kts | 150° |
| 2026-05-01 14:31 | -13.15478 | -54.02394 | 37009 ft | 457 kts | 151° |
| 2026-05-01 14:32 | -13.21027 | -53.99204 | 37009 ft | 457 kts | 151° |
| 2026-05-01 14:32 | -13.26546 | -53.96019 | 37009 ft | 457 kts | 150° |
| 2026-05-01 14:33 | -13.32101 | -53.92809 | 37010 ft | 458 kts | 151° |
| 2026-05-01 14:33 | -13.37657 | -53.89602 | 37012 ft | 458 kts | 150° |
| 2026-05-01 14:34 | -13.43208 | -53.86396 | 37013 ft | 458 kts | 151° |
| 2026-05-01 14:34 | -13.48765 | -53.83190 | 37015 ft | 458 kts | 151° |
| 2026-05-01 14:35 | -13.54328 | -53.79970 | 37016 ft | 458 kts | 150° |
| 2026-05-01 14:35 | -13.59881 | -53.76753 | 37019 ft | 458 kts | 150° |
| 2026-05-01 14:36 | -13.65437 | -53.73539 | 37019 ft | 458 kts | 151° |
| 2026-05-01 14:36 | -13.70964 | -53.70343 | 37020 ft | 458 kts | 150° |
| 2026-05-01 14:37 | -13.76517 | -53.67120 | 37020 ft | 458 kts | 150° |
| 2026-05-01 14:37 | -13.82076 | -53.63899 | 37018 ft | 458 kts | 150° |
| 2026-05-01 14:38 | -13.87648 | -53.60665 | 37018 ft | 458 kts | 150° |
| 2026-05-01 14:38 | -13.93172 | -53.57454 | 37018 ft | 458 kts | 150° |
| 2026-05-01 14:39 | -13.98739 | -53.54224 | 37018 ft | 459 kts | 151° |
| 2026-05-01 14:39 | -14.04299 | -53.51000 | 37019 ft | 459 kts | 150° |
| 2026-05-01 14:40 | -14.09859 | -53.47773 | 37020 ft | 458 kts | 150° |
| 2026-05-01 14:40 | -14.15413 | -53.44542 | 37020 ft | 458 kts | 150° |
| 2026-05-01 14:41 | -14.20931 | -53.41327 | 37021 ft | 458 kts | 150° |
| 2026-05-01 14:41 | -14.26489 | -53.38096 | 37021 ft | 458 kts | 150° |
| 2026-05-01 14:42 | -14.32046 | -53.34863 | 37020 ft | 458 kts | 150° |
| 2026-05-01 14:42 | -14.37601 | -53.31628 | 37019 ft | 458 kts | 150° |
| 2026-05-01 14:43 | -14.43123 | -53.28411 | 37017 ft | 459 kts | 150° |
| 2026-05-01 14:43 | -14.48678 | -53.25170 | 37019 ft | 459 kts | 150° |
| 2026-05-01 14:44 | -14.54235 | -53.21925 | 37019 ft | 459 kts | 150° |
| 2026-05-01 14:44 | -14.62573 | -53.17054 | 37018 ft | 459 kts | 150° |
| 2026-05-01 14:45 | -14.70920 | -53.12177 | 37019 ft | 459 kts | 150° |
| 2026-05-01 14:46 | -14.76348 | -53.08776 | 37023 ft | 459 kts | 147° |
| 2026-05-01 14:46 | -14.84338 | -53.03321 | 37023 ft | 459 kts | 147° |
| 2026-05-01 14:47 | -14.89681 | -52.99716 | 37023 ft | 459 kts | 147° |
| 2026-05-01 14:48 | -14.97755 | -52.94374 | 37021 ft | 459 kts | 147° |
| 2026-05-01 14:48 | -15.05813 | -52.89033 | 37019 ft | 459 kts | 147° |
| 2026-05-01 14:49 | -15.16550 | -52.81880 | 37022 ft | 459 kts | 147° |
| 2026-05-01 14:50 | -15.27244 | -52.74736 | 37014 ft | 459 kts | 147° |
| 2026-05-01 14:51 | -15.35312 | -52.69358 | 37015 ft | 460 kts | 147° |
| 2026-05-01 14:52 | -15.43378 | -52.63963 | 37016 ft | 460 kts | 147° |
| 2026-05-01 14:53 | -15.51452 | -52.58568 | 37023 ft | 460 kts | 147° |
| 2026-05-01 14:53 | -15.56836 | -52.54965 | 37026 ft | 460 kts | 147° |
| 2026-05-01 14:54 | -15.62211 | -52.51362 | 37023 ft | 460 kts | 147° |
| 2026-05-01 14:54 | -15.67581 | -52.47755 | 37019 ft | 460 kts | 147° |
| 2026-05-01 14:55 | -15.72054 | -52.44750 | 37017 ft | 460 kts | 147° |
| 2026-05-01 14:55 | -15.78344 | -52.40540 | 37023 ft | 460 kts | 147° |
| 2026-05-01 14:56 | -15.82817 | -52.37544 | 37026 ft | 460 kts | 147° |
| 2026-05-01 14:56 | -15.88184 | -52.33933 | 37028 ft | 460 kts | 147° |
| 2026-05-01 14:57 | -15.93547 | -52.30319 | 37028 ft | 459 kts | 147° |
| 2026-05-01 14:57 | -16.01587 | -52.24912 | 37026 ft | 459 kts | 147° |
| 2026-05-01 14:58 | -16.06949 | -52.21303 | 37025 ft | 459 kts | 147° |
| 2026-05-01 14:58 | -16.12309 | -52.17688 | 37023 ft | 459 kts | 147° |
| 2026-05-01 14:59 | -16.17674 | -52.14072 | 37021 ft | 459 kts | 147° |
| 2026-05-01 14:59 | -16.23004 | -52.10479 | 37021 ft | 459 kts | 147° |
| 2026-05-01 15:00 | -16.30727 | -52.04608 | 37022 ft | 459 kts | 133° |
| 2026-05-01 15:01 | -16.34854 | -51.99543 | 37021 ft | 459 kts | 130° |
| 2026-05-01 15:01 | -16.38976 | -51.94455 | 37020 ft | 459 kts | 130° |
| 2026-05-01 15:02 | -16.43079 | -51.89404 | 37019 ft | 459 kts | 130° |
| 2026-05-01 15:02 | -16.47196 | -51.84312 | 37015 ft | 460 kts | 130° |
| 2026-05-01 15:03 | -16.51319 | -51.79206 | 37021 ft | 460 kts | 130° |
| 2026-05-01 15:03 | -16.55431 | -51.74103 | 37022 ft | 460 kts | 130° |
| 2026-05-01 15:04 | -16.59520 | -51.69032 | 37020 ft | 460 kts | 130° |
| 2026-05-01 15:04 | -16.63637 | -51.63919 | 37016 ft | 460 kts | 130° |
| 2026-05-01 15:05 | -16.67764 | -51.58805 | 37017 ft | 461 kts | 130° |
| 2026-05-01 15:05 | -16.71889 | -51.53682 | 37017 ft | 461 kts | 130° |
| 2026-05-01 15:06 | -16.76008 | -51.48551 | 37018 ft | 461 kts | 130° |
| 2026-05-01 15:06 | -16.80129 | -51.43416 | 37019 ft | 461 kts | 130° |
| 2026-05-01 15:07 | -16.84257 | -51.38287 | 37023 ft | 461 kts | 130° |
| 2026-05-01 15:07 | -16.88374 | -51.33147 | 37023 ft | 461 kts | 130° |
| 2026-05-01 15:08 | -16.92483 | -51.27997 | 37024 ft | 461 kts | 129° |
| 2026-05-01 15:08 | -16.96508 | -51.22769 | 37024 ft | 461 kts | 128° |
| 2026-05-01 15:09 | -17.00463 | -51.17494 | 37027 ft | 461 kts | 128° |
| 2026-05-01 15:09 | -17.04404 | -51.12259 | 37023 ft | 461 kts | 128° |
| 2026-05-01 15:10 | -17.08395 | -51.07011 | 37019 ft | 461 kts | 129° |
| 2026-05-01 15:10 | -17.14402 | -50.99128 | 37020 ft | 462 kts | 128° |
| 2026-05-01 15:11 | -17.20392 | -50.91211 | 37021 ft | 462 kts | 128° |
| 2026-05-01 15:12 | -17.24380 | -50.85937 | 37023 ft | 462 kts | 128° |
| 2026-05-01 15:12 | -17.30348 | -50.78053 | 37028 ft | 462 kts | 128° |
| 2026-05-01 15:14 | -17.40322 | -50.64866 | 37026 ft | 462 kts | 128° |
| 2026-05-01 15:14 | -17.46290 | -50.56945 | 37029 ft | 462 kts | 128° |
| 2026-05-01 15:15 | -17.54242 | -50.46381 | 37026 ft | 461 kts | 128° |
| 2026-05-01 15:16 | -17.62165 | -50.35869 | 37029 ft | 461 kts | 128° |
| 2026-05-01 15:18 | -17.72079 | -50.22639 | 37025 ft | 461 kts | 128° |
| 2026-05-01 15:19 | -17.79280 | -50.11587 | 37027 ft | 460 kts | 111° |
| 2026-05-01 15:19 | -17.82505 | -50.02123 | 37022 ft | 460 kts | 109° |
| 2026-05-01 15:20 | -17.85729 | -49.92611 | 37022 ft | 461 kts | 109° |
| 2026-05-01 15:21 | -17.87872 | -49.86266 | 37020 ft | 461 kts | 109° |
| 2026-05-01 15:21 | -17.90024 | -49.79919 | 37019 ft | 462 kts | 109° |
| 2026-05-01 15:22 | -17.93252 | -49.70386 | 37022 ft | 462 kts | 109° |
| 2026-05-01 15:22 | -17.95394 | -49.64045 | 37023 ft | 462 kts | 109° |
| 2026-05-01 15:23 | -17.97541 | -49.57691 | 37024 ft | 462 kts | 109° |
| 2026-05-01 15:23 | -17.99680 | -49.51325 | 37032 ft | 462 kts | 109° |
| 2026-05-01 15:24 | -18.01814 | -49.44967 | 37027 ft | 461 kts | 109° |
| 2026-05-01 15:24 | -18.03954 | -49.38603 | 37025 ft | 461 kts | 109° |
| 2026-05-01 15:25 | -18.06075 | -49.32280 | 37022 ft | 462 kts | 109° |
| 2026-05-01 15:25 | -18.07955 | -49.25824 | 37025 ft | 461 kts | 95° |
| 2026-05-01 15:26 | -18.07827 | -49.22472 | 37023 ft | 460 kts | 77° |
| 2026-05-01 15:26 | -18.06724 | -49.19336 | 37021 ft | 458 kts | 59° |
| 2026-05-01 15:26 | -18.04753 | -49.16721 | 37011 ft | 457 kts | 41° |
| 2026-05-01 15:26 | -18.02165 | -49.14886 | 37001 ft | 455 kts | 27° |
| 2026-05-01 15:27 | -17.96463 | -49.11866 | 36988 ft | 457 kts | 26° |
| 2026-05-01 15:28 | -17.87933 | -49.07363 | 36430 ft | 453 kts | 26° |
| 2026-05-01 15:28 | -17.85181 | -49.05899 | 35949 ft | 447 kts | 27° |
| 2026-05-01 15:28 | -17.82419 | -49.04424 | 35437 ft | 443 kts | 27° |
| 2026-05-01 15:29 | -17.76993 | -49.01538 | 34759 ft | 426 kts | 26° |
| 2026-05-01 15:29 | -17.74387 | -49.00159 | 34631 ft | 414 kts | 26° |
| 2026-05-01 15:29 | -17.69965 | -48.96689 | 34374 ft | 389 kts | 54° |
| 2026-05-01 15:30 | -17.68040 | -48.91411 | 32930 ft | 398 kts | 87° |
| 2026-05-01 15:31 | -17.73145 | -48.81572 | 29917 ft | 411 kts | 153° |
| 2026-05-01 15:31 | -17.78693 | -48.80398 | 28410 ft | 414 kts | 187° |
| 2026-05-01 15:32 | -17.84106 | -48.82374 | 26906 ft | 415 kts | 206° |
| 2026-05-01 15:32 | -17.89171 | -48.85217 | 25403 ft | 415 kts | 210° |
| 2026-05-01 15:33 | -17.95930 | -48.90658 | 23141 ft | 411 kts | 238° |
| 2026-05-01 15:34 | -17.97065 | -48.99256 | 20886 ft | 408 kts | 288° |